Milford on Sea, United Kingdom
Current Conditions -  °F | °C
As of 11:50 PM on Friday 24 Oct 2014 (Local Time) from EGHH Reporting Station
Moderate Fog Moderate Fog  
Wind Chill:   Ceiling: Unl
Heat Index:   Visibility: 0.5mi
Dew Point:   Wind: 1mph
Humidity: 100%   Direction: 190°S
Pressure: 30.03"   Gusts: NA
Location:  50.73°N, 1.59°W
Report Text: EGHH 242250Z 19001KT 0800 R26/0800 FG NSC 06/06 Q1017
Loading
Personal Weather Stations






























Interactive Weather Map
Tropical Storm Tracking
New forecast layout! Learn more

10-Day Weather Forecast

Advertisements
Track Severe Weather on mobile